createdAt,value
2023-03-07T00:00:16.055Z,4.70
2023-03-07T00:02:42.827Z,4.70
2023-03-07T00:05:09.543Z,4.60
2023-03-07T00:07:36.974Z,4.60
2023-03-07T00:10:03.826Z,4.60
2023-03-07T00:12:30.490Z,4.60
2023-03-07T00:14:57.058Z,4.60
2023-03-07T00:17:23.664Z,4.60
2023-03-07T00:19:50.252Z,4.60
2023-03-07T00:22:16.837Z,4.60
2023-03-07T00:24:43.392Z,4.60
2023-03-07T00:27:10.258Z,4.60
2023-03-07T00:29:36.827Z,4.60
2023-03-07T00:32:03.673Z,4.60
2023-03-07T00:34:30.300Z,4.70
2023-03-07T00:36:56.880Z,4.60
2023-03-07T00:39:23.592Z,4.60
2023-03-07T00:41:50.200Z,4.60
2023-03-07T00:44:16.761Z,4.60
2023-03-07T00:46:43.329Z,4.60
2023-03-07T00:49:09.924Z,4.60
2023-03-07T00:51:36.542Z,4.60
2023-03-07T00:54:03.642Z,4.60
2023-03-07T00:56:30.367Z,4.50
2023-03-07T00:58:56.978Z,4.60
2023-03-07T01:01:25.087Z,4.50
2023-03-07T01:03:56.044Z,4.50
2023-03-07T01:06:28.761Z,4.50
2023-03-07T01:08:57.888Z,4.50
2023-03-07T01:11:24.868Z,4.50
2023-03-07T01:13:51.533Z,4.50
2023-03-07T01:16:19.889Z,4.50
2023-03-07T01:18:50.771Z,4.50
2023-03-07T01:21:19.084Z,4.50
2023-03-07T01:23:46.571Z,4.40
2023-03-07T01:26:15.829Z,4.40
2023-03-07T01:28:42.497Z,4.40
2023-03-07T01:31:09.250Z,4.30
2023-03-07T01:33:35.923Z,4.30
2023-03-07T01:36:02.889Z,4.30
2023-03-07T01:38:33.759Z,4.30
2023-03-07T01:41:03.540Z,4.30
2023-03-07T01:43:32.863Z,4.40
2023-03-07T01:46:17.939Z,4.40
2023-03-07T01:48:50.733Z,4.40
2023-03-07T01:51:18.946Z,4.40
2023-03-07T01:53:47.480Z,4.40
2023-03-07T01:56:14.756Z,4.30
2023-03-07T01:58:41.924Z,4.40
2023-03-07T02:01:12.798Z,4.40
2023-03-07T02:03:51.611Z,4.20
2023-03-07T02:06:18.856Z,4.20
2023-03-07T02:08:49.248Z,4.30
2023-03-07T02:11:16.683Z,4.20
2023-03-07T02:13:43.319Z,4.30
2023-03-07T02:16:10.125Z,4.30
2023-03-07T02:18:43.996Z,4.30
2023-03-07T02:21:41.125Z,4.30
2023-03-07T02:24:16.337Z,4.30
2023-03-07T02:26:44.065Z,4.20
2023-03-07T02:29:12.861Z,4.20
2023-03-07T02:31:39.725Z,4.30
2023-03-07T02:34:41.726Z,4.20
2023-03-07T02:37:13.250Z,4.30
2023-03-07T02:39:43.060Z,4.30
2023-03-07T02:42:14.344Z,4.30
2023-03-07T02:44:43.697Z,4.30
2023-03-07T02:47:10.427Z,4.30
2023-03-07T02:49:37.006Z,4.20
2023-03-07T02:52:03.882Z,4.30
2023-03-07T02:54:30.513Z,4.20
2023-03-07T02:56:57.139Z,4.20
2023-03-07T02:59:23.706Z,4.20
2023-03-07T03:01:50.352Z,4.30
2023-03-07T03:04:17.077Z,4.30
2023-03-07T03:06:43.764Z,4.30
2023-03-07T03:09:11.352Z,4.20
2023-03-07T03:11:38.043Z,4.20
2023-03-07T03:14:04.653Z,4.20
2023-03-07T03:16:31.223Z,4.20
2023-03-07T03:18:57.852Z,4.20
2023-03-07T03:21:24.433Z,4.30
2023-03-07T03:23:51.042Z,4.20
2023-03-07T03:26:17.670Z,4.30
2023-03-07T03:28:44.307Z,4.30
2023-03-07T03:31:15.104Z,4.30
2023-03-07T03:33:43.999Z,4.30
2023-03-07T03:36:14.062Z,4.40
2023-03-07T03:38:40.661Z,4.40
2023-03-07T03:41:08.720Z,4.40
2023-03-07T03:43:35.343Z,4.40
2023-03-07T03:46:02.626Z,4.40
2023-03-07T03:48:29.596Z,4.40
2023-03-07T03:51:07.515Z,4.40
2023-03-07T03:53:36.617Z,4.40
2023-03-07T03:56:08.406Z,4.40
2023-03-07T03:58:35.967Z,4.40
2023-03-07T04:01:05.685Z,4.40
2023-03-07T04:03:38.320Z,4.40
2023-03-07T04:06:15.785Z,4.40
2023-03-07T04:08:42.556Z,4.40
2023-03-07T04:11:09.165Z,4.30
2023-03-07T04:13:36.713Z,4.30
2023-03-07T04:16:04.437Z,4.30
2023-03-07T04:18:31.474Z,4.30
2023-03-07T04:20:58.131Z,4.30
2023-03-07T04:23:25.456Z,4.30
2023-03-07T04:25:57.079Z,4.30
2023-03-07T04:28:26.346Z,4.30
2023-03-07T04:30:53.133Z,4.30
2023-03-07T04:33:20.496Z,4.30
2023-03-07T04:35:47.293Z,4.30
2023-03-07T04:38:15.225Z,4.30
2023-03-07T04:40:41.864Z,4.30
2023-03-07T04:43:08.437Z,4.30
2023-03-07T04:45:37.156Z,4.30
2023-03-07T04:48:04.247Z,4.20
2023-03-07T04:50:30.915Z,4.20
2023-03-07T04:52:57.546Z,4.30
2023-03-07T04:55:24.151Z,4.30
2023-03-07T04:57:51.908Z,4.20
2023-03-07T05:00:19.919Z,4.30
2023-03-07T05:02:48.393Z,4.30
2023-03-07T05:05:15.432Z,4.20
2023-03-07T05:07:42.380Z,4.20
2023-03-07T05:10:10.574Z,4.30
2023-03-07T05:12:37.182Z,4.20
2023-03-07T05:15:04.128Z,4.20
2023-03-07T05:17:31.425Z,4.20
2023-03-07T05:19:58.010Z,4.20
2023-03-07T05:22:24.645Z,4.10
2023-03-07T05:24:51.331Z,4.20
2023-03-07T05:27:17.916Z,4.10
2023-03-07T05:29:44.476Z,4.20
2023-03-07T05:32:11.250Z,4.20
2023-03-07T05:34:38.147Z,4.10
2023-03-07T05:37:04.960Z,4.20
2023-03-07T05:39:31.552Z,4.20
2023-03-07T05:41:58.159Z,4.20
2023-03-07T05:44:24.784Z,4.20
2023-03-07T05:46:51.406Z,4.20
2023-03-07T05:49:17.997Z,4.20
2023-03-07T05:51:44.631Z,4.20
2023-03-07T05:54:11.261Z,4.30
2023-03-07T05:56:37.987Z,4.30
2023-03-07T05:59:07.587Z,4.20
2023-03-07T06:01:34.615Z,4.30
2023-03-07T06:04:01.221Z,4.30
2023-03-07T06:06:27.893Z,4.30
2023-03-07T06:08:54.770Z,4.30
2023-03-07T06:11:21.377Z,4.30
2023-03-07T06:13:48.048Z,4.30
2023-03-07T06:16:14.917Z,4.30
2023-03-07T06:18:41.859Z,4.30
2023-03-07T06:21:10.408Z,4.30
2023-03-07T06:23:37.436Z,4.40
2023-03-07T06:26:05.046Z,4.40
2023-03-07T06:28:32.885Z,4.30
2023-03-07T06:30:59.951Z,4.40
2023-03-07T06:33:26.598Z,4.40
2023-03-07T06:35:53.287Z,4.40
2023-03-07T06:38:19.977Z,4.40
2023-03-07T06:40:55.853Z,4.40
2023-03-07T06:43:22.552Z,4.40
2023-03-07T06:45:49.185Z,4.40
2023-03-07T06:48:15.822Z,4.40
2023-03-07T06:50:42.401Z,4.40
2023-03-07T06:53:08.967Z,4.40
2023-03-07T06:55:36.676Z,4.40
2023-03-07T06:58:04.162Z,4.40
2023-03-07T07:00:31.145Z,4.40
2023-03-07T07:02:58.039Z,4.50
2023-03-07T07:05:24.719Z,4.40
2023-03-07T07:07:51.324Z,4.40
2023-03-07T07:10:18.249Z,4.50
2023-03-07T07:12:44.809Z,4.50
2023-03-07T07:15:11.573Z,4.50
2023-03-07T07:17:40.908Z,4.40
2023-03-07T07:20:11.110Z,4.50
2023-03-07T07:22:37.670Z,4.50
2023-03-07T07:25:04.552Z,4.50
2023-03-07T07:27:31.161Z,4.50
2023-03-07T07:29:57.745Z,4.60
2023-03-07T07:32:24.551Z,4.60
2023-03-07T07:34:51.263Z,4.60
2023-03-07T07:37:17.825Z,4.60
2023-03-07T07:39:45.064Z,4.60
2023-03-07T07:42:12.274Z,4.60
2023-03-07T07:44:38.871Z,4.70
2023-03-07T07:47:05.568Z,4.60
2023-03-07T07:49:32.223Z,4.60
2023-03-07T07:51:58.994Z,4.60
2023-03-07T07:54:25.884Z,4.60
2023-03-07T07:56:52.578Z,4.60
2023-03-07T07:59:19.243Z,4.60
2023-03-07T08:01:46.047Z,4.60
2023-03-07T08:04:12.609Z,4.60
2023-03-07T08:06:39.638Z,4.60
2023-03-07T08:09:06.478Z,4.60
2023-03-07T08:11:33.211Z,4.60
2023-03-07T08:13:59.816Z,4.50
2023-03-07T08:16:26.472Z,4.50
2023-03-07T08:18:55.882Z,4.50
2023-03-07T08:21:23.607Z,4.50
2023-03-07T08:23:50.305Z,4.50
2023-03-07T08:26:17.633Z,4.50
2023-03-07T08:28:44.406Z,4.60
2023-03-07T08:31:15.796Z,4.50
2023-03-07T08:33:43.053Z,4.50
2023-03-07T08:36:10.099Z,4.50
2023-03-07T08:38:36.731Z,4.60
2023-03-07T08:41:06.000Z,4.60
2023-03-07T08:43:34.246Z,4.60
2023-03-07T08:46:00.950Z,4.60
2023-03-07T08:48:27.855Z,4.60
2023-03-07T08:50:55.303Z,4.50
2023-03-07T08:53:22.790Z,4.50
2023-03-07T08:55:49.732Z,4.20
2023-03-07T08:58:16.501Z,3.60
2023-03-07T09:00:43.192Z,3.50
2023-03-07T09:03:09.882Z,3.50
2023-03-07T09:05:38.693Z,3.40
2023-03-07T09:08:06.893Z,3.40
2023-03-07T09:10:35.369Z,3.50
2023-03-07T09:13:02.394Z,3.30
2023-03-07T09:15:29.116Z,3.40
2023-03-07T09:17:55.874Z,3.40
2023-03-07T09:20:22.598Z,3.40
2023-03-07T09:22:51.542Z,3.40
2023-03-07T09:25:18.584Z,3.30
2023-03-07T09:27:45.617Z,3.20
2023-03-07T09:30:14.103Z,3.20
2023-03-07T09:32:41.040Z,3.10
2023-03-07T09:35:08.205Z,3.10
2023-03-07T09:37:34.955Z,3.00
2023-03-07T09:40:01.938Z,3.10
2023-03-07T09:42:55.781Z,3.10
2023-03-07T09:45:42.090Z,3.10
2023-03-07T09:48:23.454Z,3.20
2023-03-07T09:51:11.480Z,3.20
2023-03-07T09:53:52.974Z,3.20
2023-03-07T09:56:29.355Z,3.00
2023-03-07T09:59:23.716Z,3.00
2023-03-07T10:02:16.179Z,3.00
2023-03-07T10:04:58.525Z,3.00
2023-03-07T10:07:27.890Z,2.90
2023-03-07T10:09:59.643Z,2.90
2023-03-07T10:13:05.125Z,2.90
2023-03-07T10:15:45.445Z,2.80
2023-03-07T10:18:43.087Z,2.90
2023-03-07T10:21:09.665Z,2.90
2023-03-07T10:24:02.390Z,2.90
2023-03-07T10:26:33.786Z,3.00
2023-03-07T10:29:11.798Z,3.10
2023-03-07T10:31:40.953Z,2.90
2023-03-07T10:34:26.715Z,2.90
2023-03-07T10:37:08.522Z,2.80
2023-03-07T10:39:44.529Z,2.80
2023-03-07T10:42:13.654Z,2.90
2023-03-07T10:44:40.844Z,2.80
2023-03-07T10:47:22.452Z,2.80
2023-03-07T10:49:53.478Z,2.80
2023-03-07T10:52:32.698Z,2.80
2023-03-07T10:55:30.006Z,2.90
2023-03-07T10:58:19.920Z,2.90
2023-03-07T11:01:02.673Z,3.00
2023-03-07T11:06:37.103Z,3.20
2023-03-07T11:09:16.338Z,3.20
2023-03-07T11:11:55.500Z,3.10
2023-03-07T11:14:22.792Z,3.00
2023-03-07T11:16:53.843Z,2.90
2023-03-07T11:19:39.041Z,2.80
2023-03-07T11:22:17.264Z,2.80
2023-03-07T11:24:51.661Z,3.00
2023-03-07T11:27:57.403Z,3.10
2023-03-07T11:30:36.696Z,3.00
2023-03-07T11:33:26.373Z,3.10
2023-03-07T11:36:16.899Z,3.20
2023-03-07T11:39:07.120Z,3.10
2023-03-07T11:41:40.095Z,3.10
2023-03-07T11:44:33.148Z,3.10
2023-03-07T11:47:14.302Z,3.10
2023-03-07T11:49:55.889Z,3.10
2023-03-07T11:52:31.798Z,3.10
2023-03-07T11:55:15.291Z,3.00
2023-03-07T11:58:06.727Z,3.00
2023-03-07T12:00:53.999Z,3.10
2023-03-07T12:04:01.771Z,3.30
2023-03-07T12:06:55.294Z,3.30
2023-03-07T12:09:45.110Z,3.50
2023-03-07T12:12:45.547Z,3.50
2023-03-07T12:15:27.157Z,3.40
2023-03-07T12:18:21.798Z,3.40
2023-03-07T12:20:56.964Z,3.40
2023-03-07T12:23:39.070Z,3.40
2023-03-07T12:26:28.653Z,3.50
2023-03-07T12:29:02.871Z,3.60
2023-03-07T12:31:38.097Z,3.60
2023-03-07T12:34:19.252Z,3.50
2023-03-07T12:37:02.693Z,3.40
2023-03-07T12:40:00.655Z,3.40
2023-03-07T12:42:44.005Z,3.50
2023-03-07T12:45:32.236Z,3.50
2023-03-07T12:48:07.573Z,3.40
2023-03-07T12:50:51.684Z,3.40
2023-03-07T12:53:30.603Z,3.50
2023-03-07T12:56:20.502Z,3.50
2023-03-07T12:59:12.957Z,3.50
2023-03-07T13:02:03.646Z,3.60
2023-03-07T13:04:37.606Z,3.60
2023-03-07T13:07:15.538Z,3.50
2023-03-07T13:09:45.004Z,3.50
2023-03-07T13:12:20.072Z,3.60
2023-03-07T13:14:48.950Z,3.60
2023-03-07T13:17:30.992Z,3.60
2023-03-07T13:19:58.808Z,3.70
2023-03-07T13:22:25.351Z,3.60
2023-03-07T13:24:53.570Z,3.60
2023-03-07T13:27:41.876Z,3.60
2023-03-07T13:30:18.374Z,3.60
2023-03-07T13:32:51.107Z,3.70
2023-03-07T13:35:33.347Z,3.50
2023-03-07T13:38:03.606Z,3.40
2023-03-07T13:40:48.687Z,3.30
2023-03-07T13:43:27.218Z,3.50
2023-03-07T13:45:58.174Z,3.60
2023-03-07T13:48:30.693Z,3.60
2023-03-07T13:51:00.468Z,3.50
2023-03-07T13:53:33.264Z,3.40
2023-03-07T13:56:15.057Z,3.50
2023-03-07T13:59:10.512Z,3.50
2023-03-07T14:01:44.083Z,3.60
2023-03-07T14:04:39.586Z,3.50
2023-03-07T14:07:32.298Z,3.50
2023-03-07T14:10:22.794Z,3.40
2023-03-07T14:13:05.171Z,3.40
2023-03-07T14:15:52.058Z,3.60
2023-03-07T14:18:21.734Z,3.40
2023-03-07T14:21:11.485Z,3.40
2023-03-07T14:24:11.980Z,3.40
2023-03-07T14:26:43.207Z,3.50
2023-03-07T14:29:24.343Z,3.40
2023-03-07T14:31:54.133Z,3.40
2023-03-07T14:34:36.780Z,3.20
2023-03-07T14:37:07.589Z,3.40
2023-03-07T14:39:53.490Z,3.10
2023-03-07T14:42:24.479Z,3.30
2023-03-07T14:45:15.481Z,3.10
2023-03-07T14:48:03.545Z,3.20
2023-03-07T14:50:31.761Z,3.20
2023-03-07T14:53:11.998Z,3.40
2023-03-07T14:55:41.268Z,3.30
2023-03-07T14:58:14.538Z,3.30
2023-03-07T15:00:41.192Z,3.30
2023-03-07T15:03:14.282Z,3.30
2023-03-07T15:05:49.262Z,3.20
2023-03-07T15:08:23.305Z,3.40
2023-03-07T15:10:59.172Z,3.50
2023-03-07T15:13:42.108Z,3.50
2023-03-07T15:16:24.040Z,3.40
2023-03-07T15:18:57.264Z,3.40
2023-03-07T15:21:26.315Z,3.40
2023-03-07T15:23:56.159Z,3.40
2023-03-07T15:26:26.276Z,3.40
2023-03-07T15:29:12.422Z,3.40
2023-03-07T15:31:58.576Z,3.50
2023-03-07T15:34:35.553Z,3.50
2023-03-07T15:37:26.605Z,3.50
2023-03-07T15:40:09.546Z,3.50
2023-03-07T15:42:53.598Z,3.50
2023-03-07T15:45:38.624Z,3.60
2023-03-07T15:48:34.222Z,3.70
2023-03-07T15:51:04.596Z,3.60
2023-03-07T15:53:37.401Z,3.60
2023-03-07T15:56:21.234Z,3.70
2023-03-07T15:58:48.704Z,3.70
2023-03-07T16:01:25.466Z,3.50
2023-03-07T16:04:02.921Z,3.50
2023-03-07T16:06:38.437Z,3.50
2023-03-07T16:09:05.816Z,3.40
2023-03-07T16:11:33.098Z,3.40
2023-03-07T16:13:59.959Z,3.40
2023-03-07T16:16:29.459Z,3.50
2023-03-07T16:18:59.521Z,3.50
2023-03-07T16:21:26.271Z,3.50
2023-03-07T16:23:52.932Z,3.50
2023-03-07T16:26:24.608Z,3.50
2023-03-07T16:28:52.808Z,3.50
2023-03-07T16:31:20.151Z,3.50
2023-03-07T16:33:47.814Z,3.40
2023-03-07T16:36:15.676Z,3.30
2023-03-07T16:38:42.657Z,3.20
2023-03-07T16:41:20.620Z,3.20
2023-03-07T16:43:53.442Z,3.10
2023-03-07T16:46:21.176Z,3.00
2023-03-07T16:48:47.820Z,3.00
2023-03-07T16:51:20.831Z,2.90
2023-03-07T16:53:49.179Z,2.90
2023-03-07T16:56:30.584Z,2.70
2023-03-07T16:58:58.408Z,2.60
2023-03-07T17:01:25.064Z,2.70
2023-03-07T17:03:51.790Z,2.50
2023-03-07T17:06:21.679Z,2.50
2023-03-07T17:08:51.755Z,2.40
2023-03-07T17:11:21.166Z,2.30
2023-03-07T17:13:49.156Z,2.40
2023-03-07T17:16:16.904Z,2.40
2023-03-07T17:18:44.492Z,2.30
2023-03-07T17:21:14.147Z,2.40
2023-03-07T17:23:41.020Z,2.40
2023-03-07T17:26:12.193Z,2.50
2023-03-07T17:28:39.202Z,2.40
2023-03-07T17:31:06.006Z,2.50
2023-03-07T17:33:32.871Z,2.60
2023-03-07T17:36:00.813Z,2.50
2023-03-07T17:38:27.534Z,2.50
2023-03-07T17:40:55.734Z,2.60
2023-03-07T17:43:23.125Z,2.60
2023-03-07T17:45:49.824Z,2.60
2023-03-07T17:48:16.461Z,2.40
2023-03-07T17:50:43.144Z,2.50
2023-03-07T17:53:09.811Z,2.60
2023-03-07T17:55:38.659Z,2.60
2023-03-07T17:58:09.725Z,2.70
2023-03-07T18:00:37.806Z,2.70
2023-03-07T18:03:05.557Z,2.70
2023-03-07T18:05:32.296Z,2.80
2023-03-07T18:07:58.955Z,2.60
2023-03-07T18:10:25.671Z,2.70
2023-03-07T18:12:53.524Z,2.50
2023-03-07T18:15:22.108Z,2.40
2023-03-07T18:17:50.151Z,2.40
2023-03-07T18:20:19.052Z,2.40
2023-03-07T18:22:45.922Z,2.50
2023-03-07T18:25:14.595Z,2.40
2023-03-07T18:27:41.511Z,2.30
2023-03-07T18:30:09.221Z,2.30
2023-03-07T18:32:35.861Z,2.20
2023-03-07T18:35:02.703Z,2.30
2023-03-07T18:37:29.285Z,2.30
2023-03-07T18:39:56.089Z,2.30
2023-03-07T18:42:22.754Z,2.20
2023-03-07T18:44:49.529Z,2.30
2023-03-07T18:47:16.131Z,2.30
2023-03-07T18:49:42.745Z,2.40
2023-03-07T18:52:09.371Z,2.20
2023-03-07T18:54:35.942Z,2.20
2023-03-07T18:57:02.561Z,2.30
2023-03-07T18:59:29.133Z,2.30
2023-03-07T19:01:55.876Z,2.30
2023-03-07T19:04:22.548Z,2.30
2023-03-07T19:06:49.177Z,2.30
2023-03-07T19:09:19.472Z,2.40
2023-03-07T19:11:46.594Z,2.40
2023-03-07T19:14:13.297Z,2.40
2023-03-07T19:16:40.294Z,2.30
2023-03-07T19:19:06.987Z,2.40
2023-03-07T19:21:33.561Z,2.40
2023-03-07T19:24:02.574Z,2.30
2023-03-07T19:26:29.259Z,2.40
2023-03-07T19:28:57.169Z,2.30
2023-03-07T19:31:27.883Z,2.40
2023-03-07T19:33:55.593Z,2.40
2023-03-07T19:36:26.815Z,2.40
2023-03-07T19:38:56.172Z,2.40
2023-03-07T19:41:25.216Z,2.40
2023-03-07T19:43:52.036Z,2.30
2023-03-07T19:46:20.620Z,2.20
2023-03-07T19:48:47.984Z,2.30
2023-03-07T19:51:17.361Z,2.30
2023-03-07T19:53:45.623Z,2.30
2023-03-07T19:56:13.742Z,2.30
2023-03-07T19:58:40.382Z,2.30
2023-03-07T20:01:09.420Z,2.30
2023-03-07T20:03:36.583Z,2.30
2023-03-07T20:06:04.660Z,2.30
2023-03-07T20:08:33.367Z,2.30
2023-03-07T20:11:19.396Z,2.30
2023-03-07T20:13:47.136Z,2.20
2023-03-07T20:16:15.296Z,2.20
2023-03-07T20:18:42.484Z,2.20
2023-03-07T20:21:11.762Z,2.20
2023-03-07T20:23:39.000Z,2.20
2023-03-07T20:26:11.916Z,2.10
2023-03-07T20:28:38.590Z,2.20
2023-03-07T20:31:10.394Z,2.20
2023-03-07T20:33:38.793Z,2.20
2023-03-07T20:36:08.181Z,2.20
2023-03-07T20:38:36.571Z,2.20
2023-03-07T20:41:06.237Z,2.20
2023-03-07T20:43:33.964Z,2.20
2023-03-07T20:46:05.716Z,2.20
2023-03-07T20:48:32.410Z,2.10
2023-03-07T20:51:07.238Z,2.20
2023-03-07T20:53:34.196Z,2.20
2023-03-07T20:56:03.368Z,2.20
2023-03-07T20:58:30.474Z,2.20
2023-03-07T21:00:58.470Z,2.20
2023-03-07T21:03:25.722Z,2.20
2023-03-07T21:05:57.030Z,2.10
2023-03-07T21:08:24.046Z,2.00
2023-03-07T21:11:04.717Z,2.10
2023-03-07T21:13:34.695Z,2.10
2023-03-07T21:16:03.679Z,2.00
2023-03-07T21:18:30.518Z,2.00
2023-03-07T21:21:00.984Z,2.00
2023-03-07T21:23:28.256Z,2.00
2023-03-07T21:26:10.063Z,2.00
2023-03-07T21:28:36.959Z,2.00
2023-03-07T21:31:24.759Z,2.10
2023-03-07T21:33:53.867Z,2.10
2023-03-07T21:36:20.567Z,2.10
2023-03-07T21:38:48.033Z,2.20
2023-03-07T21:41:16.065Z,2.10
2023-03-07T21:43:42.724Z,2.00
2023-03-07T21:46:11.857Z,2.00
2023-03-07T21:48:38.762Z,2.10
2023-03-07T21:51:06.081Z,2.10
2023-03-07T21:53:32.820Z,2.10
2023-03-07T21:56:02.365Z,2.20
2023-03-07T21:58:30.271Z,2.20
2023-03-07T22:00:57.592Z,2.10
2023-03-07T22:03:26.026Z,2.10
2023-03-07T22:05:52.912Z,2.10
2023-03-07T22:08:20.647Z,2.20
2023-03-07T22:11:01.732Z,2.20
2023-03-07T22:13:28.737Z,2.20
2023-03-07T22:15:57.198Z,2.20
2023-03-07T22:18:24.208Z,2.20
2023-03-07T22:20:50.949Z,2.20
2023-03-07T22:23:17.666Z,2.20
2023-03-07T22:25:44.779Z,2.20
2023-03-07T22:28:11.417Z,2.20
2023-03-07T22:30:38.208Z,2.10
2023-03-07T22:33:04.785Z,2.10
2023-03-07T22:35:31.443Z,2.10
2023-03-07T22:37:58.032Z,2.10
2023-03-07T22:40:24.581Z,2.20
2023-03-07T22:42:52.404Z,2.20
2023-03-07T22:45:19.336Z,2.20
2023-03-07T22:47:45.912Z,2.10
2023-03-07T22:50:12.819Z,2.10
2023-03-07T22:52:40.752Z,2.10
2023-03-07T22:55:07.569Z,2.20
2023-03-07T22:57:34.196Z,2.20
2023-03-07T23:00:00.792Z,2.20
2023-03-07T23:02:27.402Z,2.10
2023-03-07T23:04:54.110Z,2.10
2023-03-07T23:07:20.741Z,2.20
2023-03-07T23:09:47.326Z,2.20
2023-03-07T23:12:13.918Z,2.20
2023-03-07T23:14:40.487Z,2.20
2023-03-07T23:17:07.065Z,2.20
2023-03-07T23:19:33.851Z,2.20
2023-03-07T23:22:00.576Z,2.30
2023-03-07T23:24:27.176Z,2.20
2023-03-07T23:26:53.785Z,2.30
2023-03-07T23:29:20.361Z,2.30
2023-03-07T23:31:47.003Z,2.30
2023-03-07T23:34:16.685Z,2.30
2023-03-07T23:36:43.385Z,2.30
2023-03-07T23:39:10.067Z,2.30
2023-03-07T23:41:37.035Z,2.30
2023-03-07T23:44:03.877Z,2.20
2023-03-07T23:46:31.143Z,2.30
2023-03-07T23:48:57.882Z,2.30
2023-03-07T23:51:25.226Z,2.30
2023-03-07T23:53:51.876Z,2.30
2023-03-07T23:56:18.584Z,2.30
2023-03-07T23:58:51.618Z,2.30
